createdAt,value
2018-05-16T00:00:47.617Z,83.65
2018-05-16T00:03:13.653Z,83.74
2018-05-16T00:05:39.705Z,84.03
2018-05-16T00:08:05.722Z,83.12
2018-05-16T00:10:31.763Z,82.86
2018-05-16T00:12:57.836Z,83.42
2018-05-16T00:15:23.838Z,83.42
2018-05-16T00:17:49.921Z,84.61
2018-05-16T00:20:15.988Z,84.68
2018-05-16T00:22:41.996Z,83.04
2018-05-16T00:25:08.018Z,83.73
2018-05-16T00:27:34.025Z,84.74
2018-05-16T00:30:00.135Z,84.36
2018-05-16T00:32:27.136Z,83.87
2018-05-16T00:34:53.133Z,83.74
2018-05-16T00:37:19.164Z,83.96
2018-05-16T00:39:45.213Z,83.30
2018-05-16T00:42:11.233Z,84.19
2018-05-16T00:44:37.243Z,83.37
2018-05-16T00:47:03.345Z,84.28
2018-05-16T00:49:29.394Z,83.88
2018-05-16T00:51:55.406Z,84.01
2018-05-16T00:54:21.438Z,83.46
2018-05-16T00:56:47.461Z,84.61
2018-05-16T00:59:13.569Z,84.49
2018-05-16T01:01:39.647Z,83.91
2018-05-16T01:04:05.654Z,84.02
2018-05-16T01:06:31.699Z,83.90
2018-05-16T01:08:57.750Z,84.12
2018-05-16T01:11:23.784Z,83.25
2018-05-16T01:13:49.804Z,83.57
2018-05-16T01:16:15.881Z,83.05
2018-05-16T01:18:41.934Z,83.33
2018-05-16T01:21:07.959Z,82.78
2018-05-16T01:23:34.003Z,83.86
2018-05-16T01:26:00.028Z,83.44
2018-05-16T01:28:26.076Z,83.33
2018-05-16T01:30:52.091Z,83.57
2018-05-16T01:33:18.095Z,82.99
2018-05-16T01:35:44.106Z,83.39
2018-05-16T01:38:10.155Z,82.62
2018-05-16T01:40:36.166Z,83.01
2018-05-16T01:43:02.188Z,82.81
2018-05-16T01:45:28.289Z,82.80
2018-05-16T01:47:54.292Z,82.64
2018-05-16T01:50:20.326Z,82.87
2018-05-16T01:52:46.416Z,82.56
2018-05-16T01:55:12.942Z,82.32
2018-05-16T01:57:39.950Z,82.83
2018-05-16T02:00:05.934Z,82.46
2018-05-16T02:02:32.198Z,82.57
2018-05-16T02:04:58.917Z,83.01
2018-05-16T02:07:25.046Z,82.61
2018-05-16T02:09:51.065Z,82.32
2018-05-16T02:12:17.065Z,82.38
2018-05-16T02:14:43.129Z,82.77
2018-05-16T02:17:09.158Z,82.53
2018-05-16T02:19:35.179Z,83.38
2018-05-16T02:22:01.221Z,83.14
2018-05-16T02:24:27.281Z,82.32
2018-05-16T02:26:53.305Z,82.08
2018-05-16T02:29:19.314Z,82.70
2018-05-16T02:31:45.442Z,82.83
2018-05-16T02:34:11.487Z,82.30
2018-05-16T02:36:37.509Z,82.36
2018-05-16T02:39:04.514Z,82.20
2018-05-16T02:41:30.567Z,82.40
2018-05-16T02:43:56.800Z,82.79
2018-05-16T02:46:22.822Z,82.60
2018-05-16T02:48:49.255Z,83.39
2018-05-16T02:51:15.284Z,83.31
2018-05-16T02:53:41.290Z,83.02
2018-05-16T02:56:07.394Z,83.43
2018-05-16T02:58:33.450Z,83.30
2018-05-16T03:00:59.490Z,83.50
2018-05-16T03:03:25.566Z,83.50
2018-05-16T03:05:51.586Z,83.04
2018-05-16T03:08:17.591Z,82.61
2018-05-16T03:10:43.614Z,82.45
2018-05-16T03:13:09.957Z,82.06
2018-05-16T03:15:35.985Z,82.42
2018-05-16T03:18:02.070Z,81.99
2018-05-16T03:20:28.109Z,81.73
2018-05-16T03:22:54.202Z,81.65
2018-05-16T03:25:20.773Z,82.05
2018-05-16T03:27:46.893Z,82.17
2018-05-16T03:30:13.010Z,82.06
2018-05-16T03:32:39.367Z,82.35
2018-05-16T03:35:05.395Z,82.45
2018-05-16T03:37:31.437Z,82.67
2018-05-16T03:39:57.461Z,82.67
2018-05-16T03:42:23.501Z,82.52
2018-05-16T03:44:49.519Z,82.63
2018-05-16T03:47:15.541Z,82.14
2018-05-16T03:49:41.979Z,82.54
2018-05-16T03:52:07.985Z,83.10
2018-05-16T03:54:33.990Z,83.00
2018-05-16T03:57:00.010Z,83.04
2018-05-16T03:59:38.131Z,82.68
2018-05-16T04:02:16.494Z,82.19
2018-05-16T04:04:42.446Z,82.80
2018-05-16T04:07:08.442Z,82.92
2018-05-16T04:09:34.530Z,82.77
2018-05-16T04:12:00.627Z,82.93
2018-05-16T04:14:26.904Z,82.50
2018-05-16T04:16:52.907Z,82.27
2018-05-16T04:19:18.965Z,82.78
2018-05-16T04:21:45.058Z,82.16
2018-05-16T04:24:11.094Z,82.12
2018-05-16T04:26:37.140Z,82.44
2018-05-16T04:29:03.144Z,82.43
2018-05-16T04:31:29.292Z,82.58
2018-05-16T04:33:55.342Z,82.41
2018-05-16T04:36:21.368Z,82.21
2018-05-16T04:38:47.413Z,82.14
2018-05-16T04:41:13.429Z,82.21
2018-05-16T04:43:39.497Z,82.61
2018-05-16T04:46:05.524Z,82.54
2018-05-16T04:48:31.605Z,82.03
2018-05-16T04:50:57.633Z,81.85
2018-05-16T04:53:23.651Z,81.25
2018-05-16T04:55:49.682Z,81.45
2018-05-16T04:58:15.747Z,81.08
2018-05-16T05:00:42.906Z,80.43
2018-05-16T05:03:09.043Z,79.86
2018-05-16T05:05:35.122Z,79.79
2018-05-16T05:08:01.162Z,79.76
2018-05-16T05:10:27.186Z,79.43
2018-05-16T05:12:53.334Z,79.46
2018-05-16T05:15:19.672Z,79.50
2018-05-16T05:17:45.723Z,79.97
2018-05-16T05:20:11.729Z,79.77
2018-05-16T05:22:37.800Z,79.99
2018-05-16T05:25:03.844Z,79.90
2018-05-16T05:27:29.854Z,79.82
2018-05-16T05:29:55.867Z,80.17
2018-05-16T05:32:22.146Z,80.24
2018-05-16T05:34:48.519Z,80.64
2018-05-16T05:37:14.820Z,80.79
2018-05-16T05:39:40.841Z,80.91
2018-05-16T05:42:06.929Z,80.83
2018-05-16T05:44:33.077Z,80.69
2018-05-16T05:46:59.101Z,80.95
2018-05-16T05:49:25.126Z,80.90
2018-05-16T05:51:51.186Z,81.01
2018-05-16T05:54:17.368Z,81.04
2018-05-16T05:56:43.371Z,81.03
2018-05-16T05:59:09.395Z,80.79
2018-05-16T06:01:35.503Z,80.54
2018-05-16T06:04:01.525Z,80.54
2018-05-16T06:06:27.550Z,80.20
2018-05-16T06:08:53.622Z,80.08
2018-05-16T06:11:19.638Z,79.98
2018-05-16T06:13:45.665Z,79.99
2018-05-16T06:16:11.673Z,79.83
2018-05-16T06:18:37.679Z,79.52
2018-05-16T06:21:03.690Z,78.41
2018-05-16T06:23:29.723Z,77.33
2018-05-16T06:25:55.736Z,76.55
2018-05-16T06:28:21.753Z,75.95
2018-05-16T06:30:47.827Z,75.77
2018-05-16T06:33:13.891Z,75.71
2018-05-16T06:35:39.999Z,75.99
2018-05-16T06:38:06.091Z,75.65
2018-05-16T06:40:32.088Z,74.67
2018-05-16T06:42:58.199Z,74.26
2018-05-16T06:45:24.330Z,73.44
2018-05-16T06:47:50.394Z,72.07
2018-05-16T06:50:16.438Z,70.97
2018-05-16T06:52:42.915Z,70.66
2018-05-16T06:55:09.564Z,71.46
2018-05-16T06:57:35.998Z,71.94
2018-05-16T07:00:02.030Z,71.90
2018-05-16T07:02:28.079Z,71.23
2018-05-16T07:04:54.190Z,71.40
2018-05-16T07:07:20.723Z,71.75
2018-05-16T07:09:46.849Z,71.97
2018-05-16T07:12:13.487Z,71.98
2018-05-16T07:14:39.573Z,71.75
2018-05-16T07:17:05.701Z,71.54
2018-05-16T07:19:31.850Z,71.31
2018-05-16T07:21:57.914Z,71.00
2018-05-16T07:24:24.167Z,70.96
2018-05-16T07:26:50.241Z,70.92
2018-05-16T07:29:16.289Z,70.37
2018-05-16T07:31:42.425Z,69.66
2018-05-16T07:34:08.524Z,67.94
2018-05-16T07:36:34.673Z,66.44
2018-05-16T07:39:00.728Z,66.14
2018-05-16T07:41:26.820Z,64.46
2018-05-16T07:43:53.020Z,63.76
2018-05-16T07:46:19.177Z,63.78
2018-05-16T07:48:45.274Z,63.81
2018-05-16T07:51:11.410Z,63.18
2018-05-16T07:53:37.415Z,62.49
2018-05-16T07:56:03.588Z,63.10
2018-05-16T07:58:29.615Z,62.55
2018-05-16T08:00:55.677Z,62.51
2018-05-16T08:03:21.760Z,62.25
2018-05-16T08:05:47.770Z,62.39
2018-05-16T08:08:13.822Z,61.52
2018-05-16T08:10:39.921Z,61.62
2018-05-16T08:13:05.963Z,60.83
2018-05-16T08:15:31.982Z,60.03
2018-05-16T08:17:57.995Z,59.96
2018-05-16T08:20:24.127Z,60.23
2018-05-16T08:22:50.222Z,61.03
2018-05-16T08:25:16.296Z,61.45
2018-05-16T08:27:42.378Z,61.88
2018-05-16T08:30:08.665Z,62.25
2018-05-16T08:32:34.738Z,61.88
2018-05-16T08:35:00.786Z,61.07
2018-05-16T08:37:26.834Z,61.16
2018-05-16T08:39:53.080Z,61.18
2018-05-16T08:42:19.220Z,61.47
2018-05-16T08:44:45.869Z,61.98
2018-05-16T08:47:11.922Z,62.61
2018-05-16T08:49:37.983Z,62.49
2018-05-16T08:52:04.054Z,63.03
2018-05-16T08:54:30.171Z,63.90
2018-05-16T08:56:56.207Z,63.97
2018-05-16T08:59:22.257Z,64.47
2018-05-16T09:01:48.337Z,65.52
2018-05-16T09:04:14.394Z,65.31
2018-05-16T09:06:40.478Z,65.25
2018-05-16T09:09:06.527Z,65.92
2018-05-16T09:11:32.642Z,65.47
2018-05-16T09:13:58.781Z,65.59
2018-05-16T09:16:24.834Z,65.34
2018-05-16T09:18:50.886Z,64.54
2018-05-16T09:21:16.982Z,64.46
2018-05-16T09:23:43.041Z,64.22
2018-05-16T09:26:09.365Z,64.12
2018-05-16T09:28:36.977Z,63.77
2018-05-16T09:31:03.100Z,64.35
2018-05-16T09:33:30.086Z,63.81
2018-05-16T09:35:56.099Z,62.90
2018-05-16T09:38:22.120Z,63.30
2018-05-16T09:40:48.185Z,61.80
2018-05-16T09:43:14.219Z,61.65
2018-05-16T09:45:40.259Z,61.41
2018-05-16T09:48:06.273Z,60.34
2018-05-16T09:50:32.315Z,60.05
2018-05-16T09:52:58.542Z,59.70
2018-05-16T09:55:24.645Z,57.62
2018-05-16T09:57:50.724Z,57.71
2018-05-16T10:00:16.818Z,54.64
2018-05-16T10:02:42.956Z,53.19
2018-05-16T10:05:08.983Z,50.52
2018-05-16T10:07:35.074Z,49.30
2018-05-16T10:10:01.110Z,48.56
2018-05-16T10:12:27.264Z,48.90
2018-05-16T10:14:53.776Z,49.43
2018-05-16T10:17:19.865Z,49.50
2018-05-16T10:19:45.994Z,47.57
2018-05-16T10:22:12.037Z,47.55
2018-05-16T10:24:38.075Z,46.36
2018-05-16T10:27:04.209Z,46.24
2018-05-16T10:29:30.291Z,45.19
2018-05-16T10:31:56.385Z,44.77
2018-05-16T10:34:22.592Z,43.70
2018-05-16T10:36:48.541Z,40.90
2018-05-16T10:39:14.614Z,41.40
2018-05-16T10:41:40.754Z,40.40
2018-05-16T10:44:06.853Z,39.30
2018-05-16T10:46:33.009Z,38.46
2018-05-16T10:48:59.065Z,38.77
2018-05-16T10:51:25.199Z,39.09
2018-05-16T10:53:51.378Z,38.32
2018-05-16T10:56:18.151Z,36.95
2018-05-16T10:58:44.216Z,35.97
2018-05-16T11:01:10.270Z,36.23
2018-05-16T11:03:36.329Z,35.32
2018-05-16T11:06:02.472Z,35.48
2018-05-16T11:08:28.674Z,34.81
2018-05-16T11:10:54.720Z,34.27
2018-05-16T11:13:20.839Z,34.58
2018-05-16T11:15:46.974Z,35.70
2018-05-16T11:18:13.148Z,33.86
2018-05-16T11:20:39.171Z,34.14
2018-05-16T11:23:05.214Z,33.12
2018-05-16T11:25:31.297Z,33.16
2018-05-16T11:27:58.254Z,33.30
2018-05-16T11:30:24.371Z,33.34
2018-05-16T11:32:50.431Z,33.46
2018-05-16T11:35:16.567Z,34.42
2018-05-16T11:37:42.630Z,35.16
2018-05-16T11:40:08.749Z,34.03
2018-05-16T11:42:34.810Z,34.35
2018-05-16T11:45:00.969Z,34.03
2018-05-16T11:47:27.038Z,35.16
2018-05-16T11:49:53.177Z,33.14
2018-05-16T11:52:19.349Z,32.45
2018-05-16T11:54:45.387Z,31.84
2018-05-16T11:57:11.431Z,32.50
2018-05-16T11:59:37.459Z,32.03
2018-05-16T12:02:03.939Z,32.54
2018-05-16T12:04:30.034Z,33.38
2018-05-16T12:06:56.093Z,32.90
2018-05-16T12:09:22.178Z,32.05
2018-05-16T12:11:48.217Z,33.09
2018-05-16T12:14:14.250Z,32.87
2018-05-16T12:16:40.284Z,34.84
2018-05-16T12:19:06.359Z,36.02
2018-05-16T12:21:32.430Z,34.79
2018-05-16T12:23:58.484Z,33.92
2018-05-16T12:26:24.536Z,33.89
2018-05-16T12:28:50.763Z,34.45
2018-05-16T12:31:16.922Z,33.47
2018-05-16T12:33:43.040Z,34.06
2018-05-16T12:36:09.203Z,33.91
2018-05-16T12:38:35.238Z,33.76
2018-05-16T12:41:01.649Z,34.12
2018-05-16T12:43:29.637Z,34.17
2018-05-16T12:45:55.687Z,33.67
2018-05-16T12:48:21.727Z,35.35
2018-05-16T12:50:47.754Z,36.47
2018-05-16T12:53:13.832Z,36.86
2018-05-16T12:55:39.978Z,36.20
2018-05-16T12:58:05.998Z,35.13
2018-05-16T13:00:32.022Z,34.58
2018-05-16T13:02:58.045Z,34.98
2018-05-16T13:05:24.208Z,35.67
2018-05-16T13:07:50.245Z,35.73
2018-05-16T13:10:16.330Z,37.84
2018-05-16T13:12:42.342Z,38.39
2018-05-16T13:15:08.411Z,39.85
2018-05-16T13:17:34.494Z,40.91
2018-05-16T13:20:00.519Z,41.09
2018-05-16T13:22:26.580Z,41.05
2018-05-16T13:24:52.638Z,41.56
2018-05-16T13:27:18.723Z,43.26
2018-05-16T13:29:45.019Z,42.71
2018-05-16T13:32:11.051Z,43.12
2018-05-16T13:34:37.087Z,43.48
2018-05-16T13:37:03.182Z,43.73
2018-05-16T13:39:29.267Z,41.70
2018-05-16T13:41:55.303Z,41.35
2018-05-16T13:44:21.332Z,39.56
2018-05-16T13:46:47.544Z,42.47
2018-05-16T13:49:13.521Z,43.34
2018-05-16T13:51:39.615Z,43.96
2018-05-16T13:54:05.678Z,44.40
2018-05-16T13:56:31.739Z,45.75
2018-05-16T13:58:57.803Z,45.69
2018-05-16T14:01:23.890Z,46.70
2018-05-16T14:03:49.905Z,47.49
2018-05-16T14:06:15.947Z,47.84
2018-05-16T14:08:41.981Z,47.04
2018-05-16T14:11:08.056Z,46.33
2018-05-16T14:13:34.118Z,46.12
2018-05-16T14:16:00.154Z,45.60
2018-05-16T14:18:26.270Z,45.76
2018-05-16T14:20:52.340Z,46.57
2018-05-16T14:23:18.453Z,46.10
2018-05-16T14:25:44.694Z,46.10
2018-05-16T14:28:11.465Z,45.21
2018-05-16T14:30:37.526Z,44.87
2018-05-16T14:33:03.592Z,44.01
2018-05-16T14:35:29.617Z,42.44
2018-05-16T14:37:55.723Z,41.40
2018-05-16T14:40:21.738Z,41.87
2018-05-16T14:42:47.905Z,40.74
2018-05-16T14:45:13.917Z,40.75
2018-05-16T14:47:39.946Z,39.51
2018-05-16T14:50:05.962Z,38.77
2018-05-16T14:52:32.018Z,40.86
2018-05-16T14:54:58.114Z,40.25
2018-05-16T14:57:24.158Z,39.09
2018-05-16T14:59:50.192Z,40.26
2018-05-16T15:02:16.239Z,40.71
2018-05-16T15:04:42.294Z,41.45
2018-05-16T15:07:08.423Z,40.89
2018-05-16T15:09:34.513Z,40.44
2018-05-16T15:12:00.629Z,40.45
2018-05-16T15:14:26.647Z,41.17
2018-05-16T15:16:52.858Z,44.19
2018-05-16T15:19:19.090Z,46.68
2018-05-16T15:21:45.183Z,47.45
2018-05-16T15:24:11.247Z,46.84
2018-05-16T15:26:37.284Z,45.78
2018-05-16T15:29:03.309Z,48.65
2018-05-16T15:31:30.032Z,50.53
2018-05-16T15:33:56.124Z,51.10
2018-05-16T15:36:22.142Z,52.00
2018-05-16T15:38:48.184Z,51.96
2018-05-16T15:41:14.289Z,50.71
2018-05-16T15:43:40.530Z,53.12
2018-05-16T15:46:06.977Z,54.46
2018-05-16T15:48:33.587Z,52.02
2018-05-16T15:50:59.694Z,53.25
2018-05-16T15:53:25.783Z,54.71
2018-05-16T15:55:51.863Z,55.99
2018-05-16T15:58:17.926Z,56.05
2018-05-16T16:00:43.967Z,56.66
2018-05-16T16:03:10.011Z,54.99
2018-05-16T16:05:36.113Z,52.27
2018-05-16T16:08:02.227Z,52.35
2018-05-16T16:10:28.177Z,53.68
2018-05-16T16:12:54.197Z,55.24
2018-05-16T16:15:20.233Z,55.74
2018-05-16T16:17:46.301Z,56.67
2018-05-16T16:20:12.303Z,56.76
2018-05-16T16:22:38.317Z,57.68
2018-05-16T16:25:04.346Z,58.48
2018-05-16T16:27:30.402Z,58.60
2018-05-16T16:29:56.482Z,59.55
2018-05-16T16:32:22.574Z,60.12
2018-05-16T16:34:48.641Z,60.25
2018-05-16T16:37:14.692Z,60.84
2018-05-16T16:39:40.752Z,61.83
2018-05-16T16:42:07.415Z,63.06
2018-05-16T16:44:33.487Z,63.39
2018-05-16T16:46:59.559Z,64.09
2018-05-16T16:49:25.631Z,63.38
2018-05-16T16:51:51.687Z,64.36
2018-05-16T16:54:17.718Z,64.10
2018-05-16T16:56:43.838Z,64.53
2018-05-16T16:59:09.932Z,65.17
2018-05-16T17:01:36.075Z,66.04
2018-05-16T17:04:02.108Z,66.52
2018-05-16T17:06:28.161Z,66.26
2018-05-16T17:08:54.324Z,67.28
2018-05-16T17:11:20.400Z,67.92
2018-05-16T17:13:46.574Z,68.35
2018-05-16T17:16:12.671Z,68.32
2018-05-16T17:18:38.720Z,68.73
2018-05-16T17:21:04.818Z,69.16
2018-05-16T17:23:30.987Z,69.82
2018-05-16T17:25:57.208Z,68.97
2018-05-16T17:28:23.364Z,68.30
2018-05-16T17:30:49.481Z,67.93
2018-05-16T17:33:15.668Z,69.12
2018-05-16T17:35:41.852Z,68.83
2018-05-16T17:38:07.938Z,69.55
2018-05-16T17:40:34.097Z,70.16
2018-05-16T17:43:00.156Z,70.33
2018-05-16T17:45:26.262Z,70.47
2018-05-16T17:47:52.353Z,70.14
2018-05-16T17:50:18.497Z,69.29
2018-05-16T17:52:44.706Z,68.74
2018-05-16T17:55:10.834Z,68.91
2018-05-16T17:57:36.962Z,69.47
2018-05-16T18:00:03.188Z,69.42
2018-05-16T18:02:29.230Z,69.58
2018-05-16T18:04:55.380Z,69.12
2018-05-16T18:07:22.427Z,69.45
2018-05-16T18:09:48.490Z,69.37
2018-05-16T18:12:14.539Z,69.87
2018-05-16T18:15:01.596Z,69.80
2018-05-16T18:17:27.770Z,69.95
2018-05-16T18:19:53.797Z,70.15
2018-05-16T18:22:19.869Z,70.83
2018-05-16T18:24:45.915Z,71.01
2018-05-16T18:27:11.974Z,70.82
2018-05-16T18:29:37.995Z,71.17
2018-05-16T18:32:04.001Z,71.38
2018-05-16T18:34:30.171Z,71.76
2018-05-16T18:36:56.239Z,71.45
2018-05-16T18:39:22.365Z,72.23
2018-05-16T18:41:48.401Z,72.52
2018-05-16T18:44:14.530Z,72.34
2018-05-16T18:46:40.568Z,72.60
2018-05-16T18:49:06.685Z,72.48
2018-05-16T18:51:32.764Z,73.06
2018-05-16T18:53:58.806Z,73.19
2018-05-16T18:56:24.925Z,73.19
2018-05-16T18:58:51.049Z,72.67
2018-05-16T19:01:17.193Z,72.50
2018-05-16T19:03:43.232Z,73.36
2018-05-16T19:06:09.302Z,73.59
2018-05-16T19:08:35.387Z,73.17
2018-05-16T19:11:01.482Z,73.69
2018-05-16T19:13:27.552Z,73.93
2018-05-16T19:15:53.609Z,73.58
2018-05-16T19:18:20.658Z,73.73
2018-05-16T19:20:46.888Z,73.60
2018-05-16T19:23:13.055Z,73.68
2018-05-16T19:25:39.198Z,73.96
2018-05-16T19:28:05.225Z,73.24
2018-05-16T19:30:31.311Z,73.98
2018-05-16T19:32:58.002Z,73.71
2018-05-16T19:35:24.093Z,74.00
2018-05-16T19:37:50.133Z,74.24
2018-05-16T19:40:16.177Z,74.17
2018-05-16T19:42:42.290Z,74.08
2018-05-16T19:45:08.578Z,74.15
2018-05-16T19:47:34.636Z,74.02
2018-05-16T19:50:00.745Z,74.07
2018-05-16T19:52:26.759Z,74.46
2018-05-16T19:54:52.851Z,75.01
2018-05-16T19:57:19.006Z,74.85
2018-05-16T19:59:45.060Z,74.54
2018-05-16T20:02:11.143Z,75.10
2018-05-16T20:04:37.266Z,75.18
2018-05-16T20:07:03.342Z,74.87
2018-05-16T20:09:29.407Z,75.04
2018-05-16T20:11:55.489Z,75.40
2018-05-16T20:14:21.650Z,74.40
2018-05-16T20:16:47.749Z,74.22
2018-05-16T20:19:13.798Z,74.43
2018-05-16T20:21:39.851Z,74.56
2018-05-16T20:24:06.648Z,74.77
2018-05-16T20:26:33.276Z,75.23
2018-05-16T20:28:59.359Z,75.16
2018-05-16T20:31:25.506Z,75.38
2018-05-16T20:33:51.633Z,74.86
2018-05-16T20:36:18.077Z,75.00
2018-05-16T20:38:44.174Z,75.03
2018-05-16T20:41:10.451Z,75.08
2018-05-16T20:43:36.798Z,74.72
2018-05-16T20:46:03.151Z,74.62
2018-05-16T20:48:30.416Z,74.67
2018-05-16T20:50:56.531Z,74.59
2018-05-16T20:53:23.182Z,74.69
2018-05-16T20:55:50.775Z,74.43
2018-05-16T20:58:17.894Z,74.28
2018-05-16T21:00:44.045Z,73.82
2018-05-16T21:03:10.169Z,74.42
2018-05-16T21:05:36.264Z,74.53
2018-05-16T21:08:02.309Z,74.59
2018-05-16T21:10:28.338Z,74.16
2018-05-16T21:12:54.419Z,74.01
2018-05-16T21:15:20.539Z,74.40
2018-05-16T21:17:47.025Z,74.45
2018-05-16T21:20:13.059Z,73.87
2018-05-16T21:22:39.095Z,73.96
2018-05-16T21:25:05.150Z,73.63
2018-05-16T21:27:32.077Z,73.60
2018-05-16T21:29:58.250Z,73.81
2018-05-16T21:32:24.320Z,73.38
2018-05-16T21:34:50.380Z,73.30
2018-05-16T21:37:16.601Z,73.41
2018-05-16T21:39:42.630Z,73.60
2018-05-16T21:42:09.292Z,73.80
2018-05-16T21:44:35.461Z,73.74
2018-05-16T21:47:01.593Z,73.76
2018-05-16T21:49:27.702Z,73.33
2018-05-16T21:51:53.746Z,73.84
2018-05-16T21:54:19.783Z,73.18
2018-05-16T21:56:45.880Z,73.68
2018-05-16T21:59:12.068Z,73.55
2018-05-16T22:03:21.139Z,73.67
2018-05-16T22:05:47.265Z,73.35
2018-05-16T22:08:13.394Z,73.00
2018-05-16T22:10:39.519Z,73.27
2018-05-16T22:13:05.590Z,73.01
2018-05-16T22:15:31.608Z,72.89
2018-05-16T22:17:57.720Z,72.94
2018-05-16T22:20:23.737Z,73.21
2018-05-16T22:22:49.859Z,73.71
2018-05-16T22:25:15.916Z,73.69
2018-05-16T22:27:42.035Z,73.54
2018-05-16T22:30:08.109Z,73.90
2018-05-16T22:32:40.206Z,73.59
2018-05-16T22:35:12.277Z,74.27
2018-05-16T22:37:45.310Z,74.05
2018-05-16T22:40:17.631Z,73.97
2018-05-16T22:42:43.572Z,73.91
2018-05-16T22:45:09.646Z,74.19
2018-05-16T22:47:35.854Z,74.32
2018-05-16T22:50:02.842Z,74.73
2018-05-16T22:52:28.966Z,74.89
2018-05-16T22:54:55.280Z,74.64
2018-05-16T22:57:21.553Z,74.30
2018-05-16T22:59:47.631Z,74.76
2018-05-16T23:02:13.733Z,74.39
2018-05-16T23:04:40.004Z,74.44
2018-05-16T23:07:06.021Z,74.51
2018-05-16T23:09:32.151Z,74.39
2018-05-16T23:11:58.337Z,74.11
2018-05-16T23:14:24.367Z,74.15
2018-05-16T23:16:51.064Z,74.29
2018-05-16T23:19:17.239Z,74.21
2018-05-16T23:21:43.412Z,74.14
2018-05-16T23:24:09.790Z,74.15
2018-05-16T23:26:35.822Z,74.53
2018-05-16T23:29:01.882Z,74.31
2018-05-16T23:31:27.917Z,74.51
2018-05-16T23:33:53.999Z,74.22
2018-05-16T23:36:20.041Z,74.38
2018-05-16T23:38:46.045Z,74.09
2018-05-16T23:41:12.104Z,74.05
2018-05-16T23:43:38.128Z,74.32
2018-05-16T23:46:04.165Z,74.00
2018-05-16T23:48:30.230Z,74.15
2018-05-16T23:50:56.806Z,74.55
2018-05-16T23:53:22.881Z,74.19
2018-05-16T23:55:49.050Z,74.36
2018-05-16T23:58:15.145Z,74.49
